createdAt,value
2022-08-17T00:02:31.406Z,29.83
2022-08-17T00:05:15.432Z,29.79
2022-08-17T00:07:51.232Z,29.81
2022-08-17T00:10:31.139Z,29.80
2022-08-17T00:13:17.938Z,29.80
2022-08-17T00:15:49.045Z,29.78
2022-08-17T00:19:01.587Z,29.82
2022-08-17T00:22:32.650Z,29.83
2022-08-17T00:24:36.667Z,29.81
2022-08-17T00:27:10.514Z,29.81
2022-08-17T00:29:40.692Z,29.80
2022-08-17T00:33:13.887Z,29.82
2022-08-17T00:35:25.170Z,29.80
2022-08-17T00:38:05.415Z,29.83
2022-08-17T00:40:49.205Z,29.84
2022-08-17T00:43:29.092Z,29.84
2022-08-17T00:46:06.174Z,29.85
2022-08-17T00:48:41.257Z,29.82
2022-08-17T00:51:37.702Z,29.82
2022-08-17T00:54:18.923Z,29.82
2022-08-17T00:56:54.529Z,29.83
2022-08-17T00:59:33.461Z,29.84
2022-08-17T01:02:08.774Z,29.82
2022-08-17T01:04:42.431Z,29.86
2022-08-17T01:07:16.734Z,29.95
2022-08-17T01:09:59.417Z,29.98
2022-08-17T01:12:39.220Z,30.11
2022-08-17T01:15:12.351Z,30.23
2022-08-17T01:17:39.975Z,30.35
2022-08-17T01:20:17.446Z,30.42
2022-08-17T01:22:47.084Z,30.43
2022-08-17T01:25:30.360Z,30.53
2022-08-17T01:28:52.920Z,30.56
2022-08-17T01:31:13.163Z,30.62
2022-08-17T01:33:48.026Z,30.67
2022-08-17T01:36:28.224Z,30.78
2022-08-17T01:39:02.219Z,30.83
2022-08-17T01:41:41.303Z,30.98
2022-08-17T01:44:16.666Z,30.98
2022-08-17T01:46:53.192Z,30.90
2022-08-17T01:49:30.519Z,30.76
2022-08-17T01:52:12.854Z,30.61
2022-08-17T01:54:47.439Z,30.48
2022-08-17T01:57:23.461Z,30.38
2022-08-17T02:00:01.865Z,30.30
2022-08-17T02:02:52.991Z,30.20
2022-08-17T02:05:29.380Z,30.20
2022-08-17T02:08:07.584Z,30.13
2022-08-17T02:11:04.101Z,30.06
2022-08-17T02:13:46.389Z,30.05
2022-08-17T02:16:22.433Z,30.06
2022-08-17T02:19:00.697Z,30.03
2022-08-17T02:21:32.539Z,30.02
2022-08-17T02:24:08.534Z,29.99
2022-08-17T02:26:44.679Z,29.97
2022-08-17T02:29:20.437Z,29.97
2022-08-17T02:31:58.678Z,29.97
2022-08-17T02:34:29.095Z,29.95
2022-08-17T02:37:08.628Z,29.94
2022-08-17T02:39:46.034Z,29.94
2022-08-17T02:42:28.207Z,29.91
2022-08-17T02:45:12.436Z,29.94
2022-08-17T02:47:50.475Z,29.95
2022-08-17T02:50:25.440Z,29.96
2022-08-17T02:53:01.873Z,29.96
2022-08-17T02:55:40.727Z,29.97
2022-08-17T02:58:14.326Z,30.00
2022-08-17T03:00:53.247Z,29.98
2022-08-17T03:03:28.795Z,29.96
2022-08-17T03:06:02.149Z,29.92
2022-08-17T03:08:38.234Z,29.89
2022-08-17T03:11:14.077Z,29.90
2022-08-17T03:13:50.126Z,29.91
2022-08-17T03:16:29.314Z,29.89
2022-08-17T03:19:08.370Z,29.90
2022-08-17T03:21:43.946Z,29.89
2022-08-17T03:24:17.071Z,29.90
2022-08-17T03:26:56.891Z,29.95
2022-08-17T03:29:30.576Z,29.99
2022-08-17T03:32:13.637Z,29.95
2022-08-17T03:34:48.511Z,29.99
2022-08-17T03:37:22.337Z,30.00
2022-08-17T03:40:00.934Z,29.99
2022-08-17T03:42:38.675Z,29.99
2022-08-17T03:45:15.579Z,29.94
2022-08-17T03:48:07.200Z,29.94
2022-08-17T03:51:01.455Z,29.91
2022-08-17T03:53:47.657Z,29.92
2022-08-17T03:56:42.111Z,29.91
2022-08-17T03:59:21.025Z,29.89
2022-08-17T04:01:59.390Z,29.90
2022-08-17T04:04:39.353Z,29.89
2022-08-17T04:07:15.483Z,29.88
2022-08-17T04:09:48.727Z,29.81
2022-08-17T04:12:31.161Z,29.78
2022-08-17T04:14:59.949Z,29.78
2022-08-17T04:17:35.246Z,29.74
2022-08-17T04:20:09.490Z,29.75
2022-08-17T04:23:05.225Z,29.71
2022-08-17T04:25:41.648Z,29.67
2022-08-17T04:28:21.453Z,29.67
2022-08-17T04:31:00.378Z,29.65
2022-08-17T04:33:33.296Z,29.71
2022-08-17T04:36:11.891Z,29.65
2022-08-17T04:38:48.066Z,29.62
2022-08-17T04:41:43.208Z,29.62
2022-08-17T04:44:27.154Z,29.63
2022-08-17T04:47:19.024Z,29.58
2022-08-17T04:50:01.784Z,29.61
2022-08-17T04:52:45.595Z,29.65
2022-08-17T04:55:18.769Z,29.63
2022-08-17T04:57:56.987Z,29.64
2022-08-17T05:00:33.591Z,29.61
2022-08-17T05:03:09.801Z,29.64
2022-08-17T05:05:52.103Z,29.66
2022-08-17T05:08:31.312Z,29.62
2022-08-17T05:11:05.511Z,29.66
2022-08-17T05:13:41.465Z,29.63
2022-08-17T05:16:11.800Z,29.60
2022-08-17T05:18:50.717Z,29.59
2022-08-17T05:21:32.228Z,29.60
2022-08-17T05:24:17.629Z,29.62
2022-08-17T05:27:08.963Z,29.63
2022-08-17T05:29:45.549Z,29.62
2022-08-17T05:32:38.001Z,29.62
2022-08-17T05:35:25.056Z,29.63
2022-08-17T05:37:59.650Z,29.61
2022-08-17T05:40:36.466Z,29.63
2022-08-17T05:43:15.456Z,29.63
2022-08-17T05:46:15.144Z,29.67
2022-08-17T05:48:56.193Z,29.66
2022-08-17T05:51:43.429Z,29.67
2022-08-17T05:54:29.214Z,29.69
2022-08-17T05:57:19.746Z,29.69
2022-08-17T06:00:30.551Z,29.68
2022-08-17T06:03:20.022Z,29.73
2022-08-17T06:06:08.979Z,29.54
2022-08-17T06:09:25.876Z,29.40
2022-08-17T06:12:14.300Z,29.12
2022-08-17T06:15:30.782Z,29.03
2022-08-17T06:18:12.872Z,29.24
2022-08-17T06:21:11.754Z,29.37
2022-08-17T06:23:54.805Z,29.44
2022-08-17T06:26:50.963Z,29.93
2022-08-17T06:29:52.849Z,29.97
2022-08-17T06:32:32.266Z,29.77
2022-08-17T06:35:10.458Z,29.90
2022-08-17T06:38:00.116Z,30.36
2022-08-17T06:40:36.617Z,30.34
2022-08-17T06:43:34.877Z,30.17
2022-08-17T06:46:18.096Z,30.04
2022-08-17T06:49:10.603Z,30.01
2022-08-17T06:51:52.803Z,29.91
2022-08-17T06:54:43.278Z,30.31
2022-08-17T06:57:42.109Z,30.91
2022-08-17T07:00:27.810Z,31.23
2022-08-17T07:03:13.193Z,31.32
2022-08-17T07:06:00.349Z,31.15
2022-08-17T07:08:47.801Z,31.24
2022-08-17T07:11:28.833Z,31.45
2022-08-17T07:14:17.485Z,31.13
2022-08-17T07:17:00.988Z,30.90
2022-08-17T07:19:36.720Z,30.52
2022-08-17T07:22:24.283Z,30.30
2022-08-17T07:25:06.728Z,30.05
2022-08-17T07:27:51.594Z,29.77
2022-08-17T07:30:49.364Z,29.56
2022-08-17T07:33:33.879Z,29.53
2022-08-17T07:36:29.164Z,29.40
2022-08-17T07:39:04.964Z,29.34
2022-08-17T07:41:58.010Z,29.69
2022-08-17T07:44:49.038Z,30.05
2022-08-17T07:47:42.443Z,30.31
2022-08-17T07:50:29.888Z,30.53
2022-08-17T07:53:23.852Z,30.52
2022-08-17T07:55:54.039Z,30.32
2022-08-17T07:58:33.398Z,30.36
2022-08-17T08:01:15.841Z,30.21
2022-08-17T08:03:55.858Z,30.07
2022-08-17T08:06:35.690Z,30.12
2022-08-17T08:09:06.010Z,30.12
2022-08-17T08:11:39.257Z,30.26
2022-08-17T08:14:31.166Z,30.27
2022-08-17T08:17:05.922Z,30.18
2022-08-17T08:19:37.491Z,30.12
2022-08-17T08:22:27.379Z,30.20
2022-08-17T08:25:43.647Z,30.14
2022-08-17T08:28:27.887Z,30.27
2022-08-17T08:31:26.238Z,30.24
2022-08-17T08:34:44.647Z,30.21
2022-08-17T08:37:36.631Z,30.30
2022-08-17T08:40:31.582Z,31.06
2022-08-17T08:43:37.634Z,31.41
2022-08-17T08:46:06.728Z,31.32
2022-08-17T08:48:56.244Z,31.44
2022-08-17T08:51:29.603Z,31.54
2022-08-17T08:54:47.218Z,31.35
2022-08-17T08:57:41.650Z,30.88
2022-08-17T09:00:25.862Z,30.55
2022-08-17T09:03:43.833Z,30.52
2022-08-17T09:06:47.446Z,31.36
2022-08-17T09:09:25.795Z,31.78
2022-08-17T09:12:01.313Z,31.90
2022-08-17T09:14:55.538Z,31.94
2022-08-17T09:17:43.232Z,32.70
2022-08-17T09:20:27.727Z,33.28
2022-08-17T09:23:23.907Z,33.94
2022-08-17T09:26:31.068Z,33.75
2022-08-17T09:29:03.505Z,32.98
2022-08-17T09:31:52.664Z,32.71
2022-08-17T09:34:33.487Z,32.25
2022-08-17T09:37:22.584Z,31.81
2022-08-17T09:40:18.749Z,31.34
2022-08-17T09:43:17.794Z,31.02
2022-08-17T09:45:59.391Z,30.64
2022-08-17T09:48:50.611Z,30.33
2022-08-17T09:51:27.658Z,30.28
2022-08-17T09:54:34.753Z,30.34
2022-08-17T09:57:29.970Z,30.18
2022-08-17T10:00:16.283Z,30.25
2022-08-17T10:03:16.205Z,30.25
2022-08-17T10:06:07.928Z,30.07
2022-08-17T10:08:52.657Z,30.09
2022-08-17T10:11:58.345Z,30.37
2022-08-17T10:14:55.260Z,30.79
2022-08-17T10:17:44.193Z,30.86
2022-08-17T10:20:29.679Z,30.62
2022-08-17T10:23:21.712Z,30.17
2022-08-17T10:26:13.021Z,30.26
2022-08-17T10:29:28.942Z,30.05
2022-08-17T10:32:16.058Z,29.65
2022-08-17T10:35:09.765Z,29.77
2022-08-17T10:37:46.133Z,30.03
2022-08-17T10:40:34.850Z,30.28
2022-08-17T10:43:33.146Z,30.45
2022-08-17T10:46:31.274Z,30.28
2022-08-17T10:49:34.174Z,29.94
2022-08-17T10:52:48.476Z,29.66
2022-08-17T10:55:17.890Z,29.33
2022-08-17T10:57:49.514Z,29.15
2022-08-17T11:00:28.465Z,28.99
2022-08-17T11:03:04.441Z,28.94
2022-08-17T11:05:58.940Z,28.83
2022-08-17T11:08:37.847Z,28.74
2022-08-17T11:11:27.530Z,28.73
2022-08-17T11:14:11.203Z,28.60
2022-08-17T11:17:05.004Z,28.61
2022-08-17T11:20:12.467Z,28.55
2022-08-17T11:23:04.337Z,28.55
2022-08-17T11:25:43.342Z,28.55
2022-08-17T11:28:16.898Z,28.52
2022-08-17T11:30:48.679Z,28.48
2022-08-17T11:33:36.883Z,28.44
2022-08-17T11:36:14.640Z,28.42
2022-08-17T11:38:57.961Z,28.35
2022-08-17T11:41:39.565Z,28.30
2022-08-17T11:44:22.276Z,28.28
2022-08-17T11:47:29.736Z,28.29
2022-08-17T11:50:34.406Z,28.27
2022-08-17T11:53:06.043Z,28.23
2022-08-17T11:55:38.209Z,28.22
2022-08-17T11:58:48.120Z,28.30
2022-08-17T12:01:26.858Z,28.58
2022-08-17T12:04:19.474Z,28.71
2022-08-17T12:06:54.672Z,28.80
2022-08-17T12:09:34.572Z,28.66
2022-08-17T12:12:20.757Z,28.73
2022-08-17T12:15:10.164Z,28.76
2022-08-17T12:17:50.933Z,28.89
2022-08-17T12:20:28.983Z,28.84
2022-08-17T12:23:02.429Z,28.85
2022-08-17T12:26:03.951Z,28.83
2022-08-17T12:28:39.492Z,28.64
2022-08-17T12:31:24.647Z,28.55
2022-08-17T12:34:00.379Z,28.56
2022-08-17T12:36:39.213Z,28.51
2022-08-17T12:39:14.169Z,28.47
2022-08-17T12:42:02.812Z,28.44
2022-08-17T12:44:36.363Z,28.43
2022-08-17T12:47:22.314Z,28.40
2022-08-17T12:49:55.588Z,28.40
2022-08-17T12:52:33.344Z,28.36
2022-08-17T12:55:07.071Z,28.32
2022-08-17T12:57:42.979Z,28.36
2022-08-17T13:00:38.161Z,28.33
2022-08-17T13:03:13.684Z,28.34
2022-08-17T13:06:02.125Z,28.26
2022-08-17T13:08:44.860Z,28.26
2022-08-17T13:11:16.619Z,28.28
2022-08-17T13:13:50.864Z,28.24
2022-08-17T13:16:28.048Z,28.27
2022-08-17T13:19:08.288Z,28.34
2022-08-17T13:21:46.221Z,28.23
2022-08-17T13:24:38.173Z,28.20
2022-08-17T13:27:14.891Z,28.19
2022-08-17T13:29:44.466Z,28.22
2022-08-17T13:32:14.886Z,28.23
2022-08-17T13:35:12.516Z,28.28
2022-08-17T13:38:01.461Z,28.26
2022-08-17T13:40:41.832Z,28.23
2022-08-17T13:43:33.707Z,28.27
2022-08-17T13:46:34.442Z,28.21
2022-08-17T13:49:12.193Z,28.23
2022-08-17T13:51:49.198Z,28.21
2022-08-17T13:54:34.282Z,28.18
2022-08-17T13:57:06.835Z,28.15
2022-08-17T13:59:54.636Z,28.15
2022-08-17T14:02:28.343Z,28.16
2022-08-17T14:05:01.081Z,28.12
2022-08-17T14:07:34.127Z,28.12
2022-08-17T14:10:05.064Z,28.14
2022-08-17T14:12:42.027Z,28.13
2022-08-17T14:15:53.947Z,28.14
2022-08-17T14:18:50.543Z,28.17
2022-08-17T14:21:09.199Z,28.18
2022-08-17T14:23:43.553Z,28.17
2022-08-17T14:26:25.307Z,28.17
2022-08-17T14:28:56.709Z,28.12
2022-08-17T14:31:34.122Z,28.16
2022-08-17T14:34:13.014Z,28.14
2022-08-17T14:36:45.534Z,28.13
2022-08-17T14:39:18.496Z,28.12
2022-08-17T14:41:49.667Z,28.08
2022-08-17T14:44:25.649Z,28.14
2022-08-17T14:47:04.863Z,28.11
2022-08-17T14:49:39.232Z,28.13
2022-08-17T14:52:15.749Z,28.06
2022-08-17T14:54:56.226Z,28.02
2022-08-17T14:57:34.629Z,28.08
2022-08-17T15:00:04.887Z,28.06
2022-08-17T15:02:59.283Z,28.03
2022-08-17T15:05:54.386Z,27.99
2022-08-17T15:08:33.338Z,27.99
2022-08-17T15:11:07.740Z,28.00
2022-08-17T15:13:52.573Z,28.01
2022-08-17T15:16:35.416Z,27.99
2022-08-17T15:19:11.089Z,28.06
2022-08-17T15:21:41.737Z,28.02
2022-08-17T15:24:21.829Z,28.00
2022-08-17T15:26:55.407Z,28.00
2022-08-17T15:29:29.920Z,28.01
2022-08-17T15:32:00.719Z,28.06
2022-08-17T15:34:32.174Z,28.08
2022-08-17T15:37:09.894Z,28.02
2022-08-17T15:39:40.865Z,28.09
2022-08-17T15:42:12.451Z,28.21
2022-08-17T15:44:44.768Z,28.54
2022-08-17T15:47:15.631Z,28.84
2022-08-17T15:49:49.019Z,28.94
2022-08-17T15:52:25.059Z,28.86
2022-08-17T15:54:58.771Z,28.73
2022-08-17T15:57:33.101Z,28.63
2022-08-17T16:00:08.789Z,28.60
2022-08-17T16:03:44.585Z,28.43
2022-08-17T16:05:34.866Z,28.44
2022-08-17T16:08:07.256Z,28.37
2022-08-17T16:10:39.665Z,28.40
2022-08-17T16:13:17.675Z,28.35
2022-08-17T16:15:57.564Z,28.39
2022-08-17T16:18:34.421Z,28.35
2022-08-17T16:21:26.323Z,28.33
2022-08-17T16:24:12.732Z,28.29
2022-08-17T16:26:56.267Z,28.20
2022-08-17T16:29:34.197Z,28.26
2022-08-17T16:32:18.375Z,28.17
2022-08-17T16:34:49.472Z,28.14
2022-08-17T16:37:26.543Z,28.17
2022-08-17T16:40:04.496Z,28.14
2022-08-17T16:45:41.740Z,28.12
2022-08-17T16:48:28.604Z,28.12
2022-08-17T16:51:16.276Z,28.33
2022-08-17T16:53:57.881Z,28.50
2022-08-17T16:56:47.339Z,28.74
2022-08-17T16:59:41.119Z,28.89
2022-08-17T17:02:55.328Z,28.97
2022-08-17T17:06:16.659Z,29.03
2022-08-17T17:09:02.065Z,29.04
2022-08-17T17:11:44.548Z,29.10
2022-08-17T17:14:30.208Z,29.13
2022-08-17T17:17:19.084Z,29.16
2022-08-17T17:20:11.337Z,29.18
2022-08-17T17:22:52.060Z,29.19
2022-08-17T17:25:39.638Z,29.23
2022-08-17T17:28:35.995Z,29.23
2022-08-17T17:31:25.614Z,29.26
2022-08-17T17:34:03.914Z,29.26
2022-08-17T17:36:41.792Z,29.28
2022-08-17T17:39:18.433Z,29.29
2022-08-17T17:41:58.371Z,29.30
2022-08-17T17:44:41.747Z,29.31
2022-08-17T17:47:18.407Z,29.34
2022-08-17T17:49:57.402Z,29.35
2022-08-17T17:52:38.004Z,29.34
2022-08-17T17:55:36.161Z,29.38
2022-08-17T17:58:27.134Z,29.41
2022-08-17T18:01:10.431Z,29.44
2022-08-17T18:04:17.586Z,29.44
2022-08-17T18:07:13.480Z,29.36
2022-08-17T18:10:05.737Z,29.33
2022-08-17T18:12:58.290Z,29.41
2022-08-17T18:15:54.611Z,29.39
2022-08-17T18:18:37.990Z,29.35
2022-08-17T18:21:15.911Z,29.44
2022-08-17T18:24:04.092Z,29.42
2022-08-17T18:26:47.301Z,29.44
2022-08-17T18:29:44.717Z,29.37
2022-08-17T18:32:29.298Z,29.44
2022-08-17T18:35:19.834Z,29.48
2022-08-17T18:38:20.465Z,29.50
2022-08-17T18:41:03.639Z,29.50
2022-08-17T18:43:53.256Z,29.51
2022-08-17T18:46:33.203Z,29.52
2022-08-17T18:49:28.825Z,29.56
2022-08-17T18:52:27.803Z,29.55
2022-08-17T18:55:28.646Z,29.55
2022-08-17T18:58:18.124Z,29.57
2022-08-17T19:00:52.031Z,29.56
2022-08-17T19:03:28.659Z,29.56
2022-08-17T19:06:26.964Z,29.58
2022-08-17T19:09:05.186Z,29.57
2022-08-17T19:11:39.784Z,29.55
2022-08-17T19:14:13.316Z,29.54
2022-08-17T19:16:52.644Z,29.56
2022-08-17T19:19:56.447Z,29.58
2022-08-17T19:22:53.041Z,29.57
2022-08-17T19:25:30.263Z,29.57
2022-08-17T19:28:22.338Z,29.61
2022-08-17T19:31:09.353Z,29.61
2022-08-17T19:33:42.724Z,29.58
2022-08-17T19:36:38.513Z,29.60
2022-08-17T19:39:26.954Z,29.58
2022-08-17T19:42:22.558Z,29.62
2022-08-17T19:45:21.668Z,29.64
2022-08-17T19:48:03.011Z,29.64
2022-08-17T19:50:57.986Z,29.59
2022-08-17T19:54:06.432Z,29.62
2022-08-17T19:57:02.926Z,29.62
2022-08-17T19:59:52.103Z,29.65
2022-08-17T20:02:57.916Z,29.63
2022-08-17T20:06:08.807Z,29.58
2022-08-17T20:08:39.591Z,29.64
2022-08-17T20:11:17.798Z,29.61
2022-08-17T20:14:16.470Z,29.62
2022-08-17T20:16:52.110Z,29.65
2022-08-17T20:19:31.805Z,29.66
2022-08-17T20:22:19.810Z,29.63
2022-08-17T20:25:02.356Z,29.64
2022-08-17T20:27:56.575Z,29.63
2022-08-17T20:30:45.956Z,29.60
2022-08-17T20:33:51.756Z,29.64
2022-08-17T20:36:36.737Z,29.66
2022-08-17T20:39:36.145Z,29.63
2022-08-17T20:42:22.149Z,29.66
2022-08-17T20:45:02.878Z,29.67
2022-08-17T20:48:18.659Z,29.63
2022-08-17T20:51:22.506Z,29.62
2022-08-17T20:53:55.418Z,29.66
2022-08-17T20:56:43.550Z,29.62
2022-08-17T20:59:27.674Z,29.60
2022-08-17T21:02:23.453Z,29.59
2022-08-17T21:04:54.571Z,29.64
2022-08-17T21:07:45.033Z,29.80
2022-08-17T21:10:24.155Z,29.93
2022-08-17T21:13:15.745Z,30.11
2022-08-17T21:15:50.459Z,30.27
2022-08-17T21:18:46.370Z,30.48
2022-08-17T21:21:57.898Z,30.71
2022-08-17T21:24:51.336Z,31.02
2022-08-17T21:27:56.029Z,31.11
2022-08-17T21:30:58.540Z,31.23
2022-08-17T21:33:43.732Z,31.28
2022-08-17T21:36:26.926Z,31.30
2022-08-17T21:39:08.721Z,31.47
2022-08-17T21:41:56.873Z,31.48
2022-08-17T21:44:41.974Z,31.57
2022-08-17T21:47:26.579Z,31.64
2022-08-17T21:50:20.168Z,31.45
2022-08-17T21:53:05.388Z,31.24
2022-08-17T21:55:45.205Z,31.01
2022-08-17T21:58:53.965Z,30.78
2022-08-17T22:01:36.195Z,30.50
2022-08-17T22:04:15.914Z,30.33
2022-08-17T22:06:57.335Z,30.18
2022-08-17T22:09:33.629Z,30.02
2022-08-17T22:12:21.839Z,30.07
2022-08-17T22:14:55.857Z,30.02
2022-08-17T22:17:37.784Z,29.97
2022-08-17T22:20:16.902Z,29.95
2022-08-17T22:23:08.972Z,29.94
2022-08-17T22:26:01.560Z,29.88
2022-08-17T22:28:56.607Z,29.84
2022-08-17T22:31:54.438Z,29.86
2022-08-17T22:34:33.806Z,29.86
2022-08-17T22:37:32.213Z,29.79
2022-08-17T22:40:08.207Z,29.76
2022-08-17T22:42:49.641Z,29.78
2022-08-17T22:45:25.602Z,29.77
2022-08-17T22:48:09.063Z,29.78
2022-08-17T22:50:46.263Z,29.81
2022-08-17T22:53:43.545Z,29.77
2022-08-17T22:56:40.106Z,29.77
2022-08-17T22:59:59.841Z,29.74
2022-08-17T23:02:39.240Z,29.72
2022-08-17T23:05:41.130Z,29.74
2022-08-17T23:08:14.494Z,29.77
2022-08-17T23:10:55.557Z,29.77
2022-08-17T23:13:33.470Z,29.81
2022-08-17T23:16:12.670Z,29.80
2022-08-17T23:18:46.346Z,29.80
2022-08-17T23:21:29.507Z,29.77
2022-08-17T23:24:02.980Z,29.75
2022-08-17T23:26:42.143Z,29.75
2022-08-17T23:29:20.853Z,29.77
2022-08-17T23:31:57.820Z,29.81
2022-08-17T23:34:31.469Z,29.82
2022-08-17T23:37:04.949Z,29.83
2022-08-17T23:39:44.649Z,29.73
2022-08-17T23:42:23.423Z,29.71
2022-08-17T23:44:55.873Z,29.74
2022-08-17T23:47:34.845Z,29.74
2022-08-17T23:50:08.582Z,29.72
2022-08-17T23:52:53.628Z,29.76
2022-08-17T23:55:37.225Z,29.71
2022-08-17T23:58:13.262Z,29.68
